createdAt,value
2022-09-20T00:00:40.065Z,9.51
2022-09-20T00:03:06.586Z,9.55
2022-09-20T00:05:37.528Z,9.19
2022-09-20T00:08:04.897Z,9.15
2022-09-20T00:10:36.022Z,9.07
2022-09-20T00:13:02.679Z,9.16
2022-09-20T00:15:29.486Z,9.39
2022-09-20T00:17:56.205Z,9.31
2022-09-20T00:20:22.774Z,9.42
2022-09-20T00:22:49.652Z,9.41
2022-09-20T00:25:16.790Z,9.42
2022-09-20T00:27:43.485Z,9.32
2022-09-20T00:30:10.277Z,9.54
2022-09-20T00:32:36.681Z,9.53
2022-09-20T00:35:10.662Z,9.47
2022-09-20T00:37:38.833Z,9.61
2022-09-20T00:40:06.911Z,9.62
2022-09-20T00:42:33.627Z,9.76
2022-09-20T00:45:03.533Z,9.76
2022-09-20T00:47:29.927Z,9.77
2022-09-20T00:49:59.192Z,9.81
2022-09-20T00:52:26.745Z,9.85
2022-09-20T00:54:53.810Z,9.81
2022-09-20T00:57:20.270Z,9.80
2022-09-20T00:59:47.998Z,9.93
2022-09-20T01:02:21.283Z,9.56
2022-09-20T01:04:48.590Z,9.27
2022-09-20T01:07:16.380Z,9.00
2022-09-20T01:09:42.873Z,9.06
2022-09-20T01:12:12.314Z,9.12
2022-09-20T01:14:39.809Z,9.27
2022-09-20T01:17:07.330Z,9.50
2022-09-20T01:19:39.966Z,9.50
2022-09-20T01:22:12.813Z,9.45
2022-09-20T01:24:45.603Z,9.29
2022-09-20T01:27:30.670Z,9.53
2022-09-20T01:30:02.799Z,9.71
2022-09-20T01:32:35.576Z,9.78
2022-09-20T01:35:02.396Z,9.53
2022-09-20T01:37:38.369Z,9.69
2022-09-20T01:40:05.018Z,9.51
2022-09-20T01:42:36.683Z,9.50
2022-09-20T01:45:09.234Z,9.36
2022-09-20T01:47:35.625Z,9.51
2022-09-20T01:50:15.397Z,9.25
2022-09-20T01:52:41.810Z,9.49
2022-09-20T01:55:20.550Z,9.61
2022-09-20T01:58:02.251Z,9.79
2022-09-20T02:00:39.033Z,9.74
2022-09-20T02:03:23.950Z,10.04
2022-09-20T02:06:02.763Z,10.28
2022-09-20T02:08:38.021Z,9.85
2022-09-20T02:11:10.574Z,9.56
2022-09-20T02:13:40.066Z,9.44
2022-09-20T02:16:06.629Z,9.22
2022-09-20T02:18:45.378Z,9.43
2022-09-20T02:21:32.608Z,9.29
2022-09-20T02:24:08.970Z,9.09
2022-09-20T02:26:35.358Z,9.20
2022-09-20T02:29:01.783Z,9.20
2022-09-20T02:31:31.084Z,9.29
2022-09-20T02:34:06.601Z,9.30
2022-09-20T02:36:52.020Z,9.15
2022-09-20T02:39:24.797Z,9.12
2022-09-20T02:42:03.256Z,9.13
2022-09-20T02:44:42.009Z,9.16
2022-09-20T02:47:20.868Z,8.98
2022-09-20T02:49:56.191Z,8.94
2022-09-20T02:52:49.445Z,9.13
2022-09-20T02:55:16.146Z,9.19
2022-09-20T02:57:46.941Z,9.05
2022-09-20T03:00:25.193Z,8.96
2022-09-20T03:03:11.858Z,9.00
2022-09-20T03:05:53.385Z,8.77
2022-09-20T03:08:28.949Z,8.60
2022-09-20T03:11:01.450Z,8.73
2022-09-20T03:13:27.842Z,8.90
2022-09-20T03:16:04.148Z,8.76
2022-09-20T03:18:56.086Z,8.68
2022-09-20T03:21:36.429Z,8.85
2022-09-20T03:24:16.345Z,8.84
2022-09-20T03:26:42.840Z,8.90
2022-09-20T03:29:29.516Z,9.05
2022-09-20T03:31:56.044Z,9.04
2022-09-20T03:34:34.574Z,9.04
2022-09-20T03:37:19.728Z,9.03
2022-09-20T03:39:59.829Z,8.62
2022-09-20T03:42:28.431Z,8.76
2022-09-20T03:45:13.700Z,8.88
2022-09-20T03:47:40.137Z,8.86
2022-09-20T03:50:23.236Z,8.88
2022-09-20T03:52:57.694Z,8.97
2022-09-20T03:55:30.334Z,9.05
2022-09-20T03:57:59.928Z,8.92
2022-09-20T04:00:47.915Z,8.89
2022-09-20T04:03:22.731Z,9.20
2022-09-20T04:06:16.682Z,9.13
2022-09-20T04:09:01.233Z,9.09
2022-09-20T04:11:28.796Z,9.34
2022-09-20T04:14:02.958Z,9.29
2022-09-20T04:16:32.434Z,9.11
2022-09-20T04:19:11.581Z,8.98
2022-09-20T04:21:41.793Z,9.02
2022-09-20T04:24:08.194Z,9.08
2022-09-20T04:26:40.901Z,9.14
2022-09-20T04:29:26.509Z,8.83
2022-09-20T04:32:01.511Z,9.16
2022-09-20T04:35:06.809Z,9.10
2022-09-20T04:37:35.541Z,9.10
2022-09-20T04:40:21.029Z,8.97
2022-09-20T04:42:51.742Z,8.82
2022-09-20T04:45:37.186Z,8.93
2022-09-20T04:48:22.517Z,8.74
2022-09-20T04:50:55.090Z,8.76
2022-09-20T04:53:21.670Z,8.84
2022-09-20T04:56:02.003Z,8.70
2022-09-20T04:58:40.537Z,8.79
2022-09-20T05:01:17.112Z,8.89
2022-09-20T05:04:02.738Z,8.52
2022-09-20T05:06:38.846Z,8.55
2022-09-20T05:09:16.361Z,8.60
2022-09-20T05:12:18.420Z,8.62
2022-09-20T05:14:59.358Z,8.70
2022-09-20T05:17:44.824Z,8.71
2022-09-20T05:20:38.329Z,8.65
2022-09-20T05:23:23.934Z,8.78
2022-09-20T05:25:56.451Z,8.92
2022-09-20T05:28:28.680Z,8.83
2022-09-20T05:31:02.919Z,8.99
2022-09-20T05:33:37.821Z,8.90
2022-09-20T05:36:32.334Z,9.31
2022-09-20T05:39:03.513Z,9.33
2022-09-20T05:41:37.770Z,9.62
2022-09-20T05:44:28.858Z,9.80
2022-09-20T05:47:15.502Z,9.86
2022-09-20T05:49:51.230Z,9.87
2022-09-20T05:52:47.153Z,9.80
2022-09-20T05:55:19.758Z,9.87
2022-09-20T05:57:56.551Z,9.94
2022-09-20T06:00:29.016Z,10.10
2022-09-20T06:03:01.569Z,10.01
2022-09-20T06:05:47.111Z,9.86
2022-09-20T06:08:13.501Z,9.62
2022-09-20T06:10:55.297Z,9.86
2022-09-20T06:13:33.553Z,9.86
2022-09-20T06:16:01.544Z,9.89
2022-09-20T06:18:47.891Z,9.88
2022-09-20T06:21:31.961Z,9.97
2022-09-20T06:24:00.140Z,10.32
2022-09-20T06:26:29.318Z,10.53
2022-09-20T06:29:00.609Z,10.58
2022-09-20T06:31:27.356Z,10.66
2022-09-20T06:34:02.652Z,10.69
2022-09-20T06:36:55.367Z,10.75
2022-09-20T06:39:43.373Z,10.89
2022-09-20T06:42:10.564Z,11.11
2022-09-20T06:44:43.236Z,11.09
2022-09-20T06:47:13.229Z,12.02
2022-09-20T06:49:42.688Z,12.03
2022-09-20T06:52:14.211Z,11.46
2022-09-20T06:54:43.474Z,11.40
2022-09-20T06:57:10.462Z,11.59
2022-09-20T06:59:36.933Z,11.71
2022-09-20T07:02:03.601Z,11.73
2022-09-20T07:04:30.109Z,11.60
2022-09-20T07:07:00.070Z,11.22
2022-09-20T07:09:26.578Z,11.45
2022-09-20T07:11:53.017Z,11.92
2022-09-20T07:14:19.432Z,12.43
2022-09-20T07:16:45.927Z,12.59
2022-09-20T07:19:12.362Z,12.68
2022-09-20T07:21:38.822Z,12.89
2022-09-20T07:24:05.368Z,12.96
2022-09-20T07:26:31.949Z,12.98
2022-09-20T07:28:59.167Z,12.79
2022-09-20T07:31:26.672Z,12.48
2022-09-20T07:33:53.263Z,12.79
2022-09-20T07:36:19.800Z,13.14
2022-09-20T07:38:50.376Z,13.98
2022-09-20T07:41:19.047Z,14.84
2022-09-20T07:43:45.659Z,15.34
2022-09-20T07:46:13.641Z,15.94
2022-09-20T07:48:40.653Z,16.01
2022-09-20T07:51:09.029Z,15.98
2022-09-20T07:53:36.323Z,16.10
2022-09-20T07:56:05.550Z,15.97
2022-09-20T07:58:33.959Z,15.88
2022-09-20T08:01:01.983Z,15.88
2022-09-20T08:03:33.056Z,15.67
2022-09-20T08:06:07.151Z,15.60
2022-09-20T08:08:37.932Z,15.80
2022-09-20T08:11:06.565Z,15.69
2022-09-20T08:16:23.483Z,16.24
2022-09-20T08:18:57.626Z,16.69
2022-09-20T08:21:34.385Z,17.70
2022-09-20T08:24:00.991Z,17.85
2022-09-20T08:26:28.191Z,18.40
2022-09-20T08:28:55.941Z,19.08
2022-09-20T08:31:24.277Z,19.53
2022-09-20T08:33:51.324Z,20.22
2022-09-20T08:36:19.530Z,20.60
2022-09-20T08:41:39.047Z,19.24
2022-09-20T08:44:14.748Z,20.91
2022-09-20T08:46:47.527Z,21.03
2022-09-20T08:49:22.522Z,21.94
2022-09-20T08:51:50.659Z,21.93
2022-09-20T08:54:17.659Z,20.74
2022-09-20T08:56:49.758Z,22.59
2022-09-20T08:59:18.694Z,23.37
2022-09-20T09:01:45.805Z,22.53
2022-09-20T09:04:19.995Z,22.04
2022-09-20T09:06:46.906Z,21.38
2022-09-20T09:09:24.638Z,19.53
2022-09-20T09:11:51.857Z,20.91
2022-09-20T09:14:57.269Z,21.35
2022-09-20T09:17:28.041Z,20.45
2022-09-20T09:19:58.937Z,22.58
2022-09-20T09:22:25.328Z,22.82
2022-09-20T09:25:07.118Z,23.07
2022-09-20T09:27:35.095Z,22.89
2022-09-20T09:30:01.801Z,22.95
2022-09-20T09:32:30.892Z,23.46
2022-09-20T09:35:18.437Z,23.44
2022-09-20T09:37:52.911Z,23.01
2022-09-20T09:40:19.736Z,23.90
2022-09-20T09:42:50.191Z,23.63
2022-09-20T09:45:27.102Z,23.87
2022-09-20T09:47:54.678Z,24.76
2022-09-20T09:50:25.495Z,22.65
2022-09-20T09:53:02.989Z,23.46
2022-09-20T09:55:38.209Z,24.11
2022-09-20T09:58:16.004Z,24.74
2022-09-20T10:00:46.697Z,24.61
2022-09-20T10:03:19.398Z,23.45
2022-09-20T10:06:04.937Z,24.28
2022-09-20T10:08:43.730Z,24.95
2022-09-20T10:11:29.196Z,24.11
2022-09-20T10:13:55.695Z,24.38
2022-09-20T10:16:29.175Z,24.34
2022-09-20T10:19:03.434Z,24.69
2022-09-20T10:21:32.592Z,24.82
2022-09-20T10:24:04.044Z,24.14
2022-09-20T10:26:43.953Z,24.49
2022-09-20T10:29:39.766Z,24.48
2022-09-20T10:32:06.207Z,24.72
2022-09-20T10:34:44.960Z,24.89
2022-09-20T10:37:16.286Z,25.18
2022-09-20T10:39:45.911Z,25.07
2022-09-20T10:42:55.090Z,25.09
2022-09-20T10:48:35.470Z,25.30
2022-09-20T10:51:20.924Z,25.25
2022-09-20T10:53:58.896Z,25.82
2022-09-20T10:56:30.824Z,25.98
2022-09-20T10:59:17.273Z,24.89
2022-09-20T11:02:02.836Z,24.38
2022-09-20T11:04:35.578Z,23.97
2022-09-20T11:07:10.198Z,24.60
2022-09-20T11:09:38.939Z,24.36
2022-09-20T11:12:16.245Z,25.27
2022-09-20T11:14:48.353Z,23.40
2022-09-20T11:17:26.847Z,22.14
2022-09-20T11:20:07.075Z,21.51
2022-09-20T11:22:43.140Z,21.08
2022-09-20T11:25:20.024Z,20.51
2022-09-20T11:27:52.864Z,19.94
2022-09-20T11:30:19.336Z,19.35
2022-09-20T11:33:04.610Z,18.41
2022-09-20T11:35:34.527Z,18.57
2022-09-20T11:38:18.675Z,18.03
2022-09-20T11:41:14.231Z,17.92
2022-09-20T11:43:45.328Z,18.48
2022-09-20T11:46:15.726Z,17.94
2022-09-20T11:48:55.504Z,17.65
2022-09-20T11:51:34.281Z,19.26
2022-09-20T11:54:04.785Z,20.99
2022-09-20T11:56:33.914Z,21.82
2022-09-20T11:59:05.429Z,22.46
2022-09-20T12:01:37.468Z,22.20
2022-09-20T12:04:32.875Z,23.21
2022-09-20T12:07:10.517Z,21.81
2022-09-20T12:09:43.164Z,20.52
2022-09-20T12:12:18.478Z,19.51
2022-09-20T12:14:53.193Z,20.78
2022-09-20T12:17:38.353Z,20.30
2022-09-20T12:20:24.758Z,20.32
2022-09-20T12:22:51.303Z,19.79
2022-09-20T12:25:38.566Z,19.56
2022-09-20T12:28:13.720Z,19.57
2022-09-20T12:30:40.250Z,19.69
2022-09-20T12:33:18.290Z,19.86
2022-09-20T12:35:57.999Z,19.73
2022-09-20T12:38:31.187Z,19.45
2022-09-20T12:40:58.573Z,18.91
2022-09-20T12:43:25.409Z,19.03
2022-09-20T12:45:57.901Z,18.79
2022-09-20T12:48:27.879Z,19.46
2022-09-20T12:51:36.891Z,19.79
2022-09-20T12:54:08.088Z,19.83
2022-09-20T12:56:39.332Z,19.91
2022-09-20T12:59:18.597Z,20.36
2022-09-20T13:01:46.335Z,20.66
2022-09-20T13:04:32.270Z,21.34
2022-09-20T13:07:25.150Z,20.93
2022-09-20T13:09:51.666Z,22.33
2022-09-20T13:12:19.525Z,22.55
2022-09-20T13:14:47.173Z,21.88
2022-09-20T13:17:19.230Z,20.03
2022-09-20T13:19:46.700Z,20.29
2022-09-20T13:22:33.000Z,21.76
2022-09-20T13:25:02.714Z,20.50
2022-09-20T13:27:34.554Z,20.33
2022-09-20T13:30:20.222Z,20.65
2022-09-20T13:32:47.330Z,20.09
2022-09-20T13:35:24.232Z,20.30
2022-09-20T13:37:56.474Z,19.28
2022-09-20T13:40:33.286Z,20.35
2022-09-20T13:43:21.988Z,21.69
2022-09-20T13:45:52.221Z,21.64
2022-09-20T13:48:18.694Z,21.74
2022-09-20T13:50:49.060Z,21.12
2022-09-20T13:53:33.549Z,21.28
2022-09-20T13:56:10.069Z,22.00
2022-09-20T13:58:39.442Z,21.97
2022-09-20T14:01:09.197Z,21.52
2022-09-20T14:03:36.125Z,22.20
2022-09-20T14:06:07.854Z,22.42
2022-09-20T14:08:40.589Z,22.78
2022-09-20T14:11:08.617Z,22.69
2022-09-20T14:13:40.731Z,22.86
2022-09-20T14:16:07.814Z,23.54
2022-09-20T14:18:35.446Z,23.56
2022-09-20T14:21:02.322Z,22.40
2022-09-20T14:23:29.762Z,20.63
2022-09-20T14:26:05.814Z,19.89
2022-09-20T14:28:32.425Z,19.49
2022-09-20T14:31:07.293Z,18.86
2022-09-20T14:33:34.128Z,19.29
2022-09-20T14:36:00.848Z,19.10
2022-09-20T14:38:27.562Z,19.16
2022-09-20T14:40:54.126Z,19.17
2022-09-20T14:43:20.554Z,19.08
2022-09-20T14:45:51.888Z,18.46
2022-09-20T14:48:18.403Z,19.04
2022-09-20T14:50:46.948Z,18.61
2022-09-20T14:53:29.601Z,18.55
2022-09-20T14:56:05.250Z,18.43
2022-09-20T14:58:32.169Z,18.60
2022-09-20T15:01:05.698Z,18.62
2022-09-20T15:03:40.712Z,18.57
2022-09-20T15:06:11.250Z,18.47
2022-09-20T15:08:40.774Z,18.53
2022-09-20T15:11:19.890Z,18.62
2022-09-20T15:13:46.546Z,18.78
2022-09-20T15:16:14.638Z,18.33
2022-09-20T15:18:42.413Z,18.47
2022-09-20T15:21:10.911Z,18.44
2022-09-20T15:23:38.830Z,17.88
2022-09-20T15:26:05.943Z,17.67
2022-09-20T15:28:33.354Z,17.86
2022-09-20T15:30:59.861Z,17.60
2022-09-20T15:33:29.121Z,17.61
2022-09-20T15:35:55.519Z,17.32
2022-09-20T15:38:22.805Z,17.29
2022-09-20T15:40:49.611Z,16.99
2022-09-20T15:43:17.598Z,16.87
2022-09-20T15:45:52.795Z,16.83
2022-09-20T15:48:21.507Z,16.79
2022-09-20T15:51:07.598Z,16.72
2022-09-20T15:53:35.420Z,16.62
2022-09-20T15:56:03.494Z,16.48
2022-09-20T15:58:35.458Z,16.41
2022-09-20T16:01:06.333Z,16.26
2022-09-20T16:03:33.269Z,16.43
2022-09-20T16:06:04.301Z,16.09
2022-09-20T16:08:35.137Z,16.22
2022-09-20T16:11:02.406Z,15.86
2022-09-20T16:13:28.949Z,15.86
2022-09-20T16:15:56.006Z,15.72
2022-09-20T16:18:41.181Z,15.56
2022-09-20T16:21:08.625Z,15.45
2022-09-20T16:23:37.309Z,15.31
2022-09-20T16:26:03.749Z,15.11
2022-09-20T16:28:30.290Z,15.27
2022-09-20T16:30:57.433Z,15.22
2022-09-20T16:33:23.881Z,15.31
2022-09-20T16:35:50.300Z,15.33
2022-09-20T16:38:16.724Z,15.28
2022-09-20T16:40:43.126Z,15.11
2022-09-20T16:43:09.613Z,15.21
2022-09-20T16:45:36.170Z,15.21
2022-09-20T16:48:08.306Z,15.24
2022-09-20T16:50:35.183Z,15.19
2022-09-20T16:53:01.686Z,15.22
2022-09-20T16:55:28.106Z,15.14
2022-09-20T16:57:54.513Z,14.89
2022-09-20T17:00:21.808Z,14.96
2022-09-20T17:02:51.443Z,14.94
2022-09-20T17:05:17.882Z,14.70
2022-09-20T17:07:44.667Z,14.93
2022-09-20T17:10:11.262Z,14.61
2022-09-20T17:12:46.656Z,14.51
2022-09-20T17:15:13.655Z,14.55
2022-09-20T17:17:40.123Z,14.37
2022-09-20T17:20:07.726Z,14.36
2022-09-20T17:22:34.234Z,14.19
2022-09-20T17:25:00.662Z,14.05
2022-09-20T17:27:27.101Z,14.25
2022-09-20T17:29:53.558Z,14.15
2022-09-20T17:32:20.437Z,13.96
2022-09-20T17:34:46.963Z,13.75
2022-09-20T17:37:13.444Z,13.79
2022-09-20T17:39:40.841Z,13.45
2022-09-20T17:42:07.346Z,13.64
2022-09-20T17:44:37.543Z,13.55
2022-09-20T17:47:04.281Z,13.45
2022-09-20T17:49:31.389Z,13.38
2022-09-20T17:51:57.850Z,13.32
2022-09-20T17:54:24.756Z,13.28
2022-09-20T17:56:53.248Z,13.20
2022-09-20T17:59:20.278Z,13.09
2022-09-20T18:01:47.906Z,13.25
2022-09-20T18:04:14.492Z,13.04
2022-09-20T18:06:48.530Z,13.04
2022-09-20T18:09:16.450Z,13.05
2022-09-20T18:11:46.269Z,12.98
2022-09-20T18:14:15.675Z,13.16
2022-09-20T18:16:44.195Z,12.94
2022-09-20T18:19:11.073Z,13.01
2022-09-20T18:21:38.242Z,12.75
2022-09-20T18:24:05.523Z,12.73
2022-09-20T18:26:32.734Z,12.80
2022-09-20T18:29:02.226Z,12.82
2022-09-20T18:31:44.610Z,12.76
2022-09-20T18:34:17.753Z,12.59
2022-09-20T18:36:52.853Z,12.38
2022-09-20T18:39:20.501Z,12.36
2022-09-20T18:41:47.582Z,12.57
2022-09-20T18:44:14.387Z,12.45
2022-09-20T18:46:41.538Z,12.31
2022-09-20T18:49:09.361Z,12.26
2022-09-20T18:51:39.677Z,12.45
2022-09-20T18:54:09.027Z,12.20
2022-09-20T18:56:36.169Z,12.17
2022-09-20T18:59:06.123Z,12.04
2022-09-20T19:01:52.609Z,12.03
2022-09-20T19:04:31.317Z,12.03
2022-09-20T19:07:03.954Z,12.08
2022-09-20T19:09:45.641Z,12.33
2022-09-20T19:12:34.060Z,12.37
2022-09-20T19:15:00.469Z,12.22
2022-09-20T19:17:39.272Z,12.01
2022-09-20T19:20:19.673Z,12.20
2022-09-20T19:23:01.767Z,12.29
2022-09-20T19:25:32.669Z,12.44
2022-09-20T19:27:59.160Z,12.34
2022-09-20T19:30:25.784Z,12.10
2022-09-20T19:32:52.323Z,12.05
2022-09-20T19:35:21.877Z,12.04
2022-09-20T19:38:15.358Z,11.93
2022-09-20T19:40:46.421Z,11.82
2022-09-20T19:43:25.278Z,12.10
2022-09-20T19:46:13.270Z,12.01
2022-09-20T19:48:48.573Z,11.77
2022-09-20T19:51:16.951Z,11.79
2022-09-20T19:53:43.561Z,11.90
2022-09-20T19:56:12.849Z,11.85
2022-09-20T19:58:44.943Z,12.20
2022-09-20T20:01:11.741Z,12.14
2022-09-20T20:03:38.945Z,12.13
2022-09-20T20:06:20.380Z,12.17
2022-09-20T20:08:54.948Z,12.05
2022-09-20T20:11:40.203Z,12.03
2022-09-20T20:14:11.937Z,12.23
2022-09-20T20:16:57.329Z,12.27
2022-09-20T20:19:44.773Z,12.26
2022-09-20T20:22:14.182Z,12.37
2022-09-20T20:24:50.033Z,12.36
2022-09-20T20:27:16.452Z,12.44
2022-09-20T20:29:42.893Z,12.35
2022-09-20T20:32:09.795Z,12.29
2022-09-20T20:34:37.032Z,12.23
2022-09-20T20:37:04.926Z,12.08
2022-09-20T20:39:32.103Z,12.01
2022-09-20T20:42:02.295Z,12.05
2022-09-20T20:44:35.977Z,12.10
2022-09-20T20:47:06.282Z,11.92
2022-09-20T20:49:33.157Z,12.07
2022-09-20T20:52:04.508Z,11.98
2022-09-20T20:54:31.817Z,11.69
2022-09-20T20:56:59.114Z,11.68
2022-09-20T20:59:25.780Z,11.76
2022-09-20T21:01:52.260Z,11.44
2022-09-20T21:04:18.737Z,11.12
2022-09-20T21:06:45.243Z,11.14
2022-09-20T21:09:12.413Z,11.33
2022-09-20T21:11:43.654Z,11.18
2022-09-20T21:14:10.663Z,11.10
2022-09-20T21:16:38.201Z,11.15
2022-09-20T21:19:05.633Z,11.01
2022-09-20T21:21:33.450Z,10.81
2022-09-20T21:24:01.383Z,10.95
2022-09-20T21:26:31.866Z,10.72
2022-09-20T21:28:59.582Z,10.48
2022-09-20T21:31:27.730Z,10.39
2022-09-20T21:33:55.450Z,10.55
2022-09-20T21:36:22.921Z,10.44
2022-09-20T21:38:49.449Z,10.40
2022-09-20T21:41:17.715Z,10.20
2022-09-20T21:43:45.735Z,10.26
2022-09-20T21:46:17.654Z,10.21
2022-09-20T21:48:44.392Z,10.13
2022-09-20T21:51:12.043Z,9.90
2022-09-20T21:53:39.325Z,9.78
2022-09-20T21:56:07.203Z,9.81
2022-09-20T21:58:34.139Z,9.86
2022-09-20T22:01:02.228Z,9.78
2022-09-20T22:03:35.415Z,9.75
2022-09-20T22:06:06.165Z,9.75
2022-09-20T22:08:33.137Z,9.45
2022-09-20T22:10:59.606Z,9.49
2022-09-20T22:13:26.022Z,9.72
2022-09-20T22:15:52.568Z,9.80
2022-09-20T22:18:19.029Z,9.71
2022-09-20T22:20:45.544Z,9.75
2022-09-20T22:23:12.010Z,9.73
2022-09-20T22:25:38.413Z,9.68
2022-09-20T22:28:04.830Z,9.88
2022-09-20T22:30:31.294Z,9.79
2022-09-20T22:32:57.741Z,9.61
2022-09-20T22:35:24.365Z,9.92
2022-09-20T22:37:50.812Z,9.94
2022-09-20T22:40:17.298Z,9.76
2022-09-20T22:42:43.736Z,9.46
2022-09-20T22:45:10.406Z,9.89
2022-09-20T22:47:36.845Z,9.96
2022-09-20T22:50:03.323Z,9.96
2022-09-20T22:52:29.845Z,9.98
2022-09-20T22:54:56.406Z,9.88
2022-09-20T22:57:22.846Z,9.63
2022-09-20T22:59:49.278Z,9.46
2022-09-20T23:02:15.691Z,9.31
2022-09-20T23:04:42.106Z,9.21
2022-09-20T23:07:08.902Z,9.29
2022-09-20T23:09:35.361Z,9.13
2022-09-20T23:12:01.824Z,9.10
2022-09-20T23:14:28.265Z,9.04
2022-09-20T23:16:54.693Z,8.99
2022-09-20T23:19:21.216Z,8.85
2022-09-20T23:21:47.670Z,8.87
2022-09-20T23:24:15.078Z,8.93
2022-09-20T23:26:42.222Z,8.75
2022-09-20T23:29:10.896Z,8.65
2022-09-20T23:31:38.284Z,8.84
2022-09-20T23:34:06.308Z,9.05
2022-09-20T23:36:34.052Z,9.02
2022-09-20T23:39:00.607Z,9.06
2022-09-20T23:41:27.774Z,8.87
2022-09-20T23:43:54.393Z,8.98
2022-09-20T23:46:22.229Z,9.02
2022-09-20T23:48:50.390Z,9.11
2022-09-20T23:51:18.661Z,8.85
2022-09-20T23:53:45.106Z,8.80
2022-09-20T23:56:12.401Z,8.80
2022-09-20T23:58:39.909Z,8.93
